createdAt,value
2019-06-01T00:00:10.834Z,67.21
2019-06-01T00:02:33.182Z,66.85
2019-06-01T00:05:11.868Z,66.89
2019-06-01T00:07:51.577Z,66.65
2019-06-01T00:10:39.613Z,66.59
2019-06-01T00:13:11.933Z,66.74
2019-06-01T00:15:46.145Z,66.83
2019-06-01T00:18:19.871Z,67.17
2019-06-01T00:20:52.752Z,67.07
2019-06-01T00:23:28.815Z,66.83
2019-06-01T00:26:10.303Z,66.95
2019-06-01T00:28:43.731Z,67.22
2019-06-01T00:31:15.624Z,67.49
2019-06-01T00:33:49.655Z,67.27
2019-06-01T00:36:23.505Z,67.38
2019-06-01T00:38:56.736Z,67.51
2019-06-01T00:41:30.410Z,67.67
2019-06-01T00:44:02.948Z,67.63
2019-06-01T00:46:34.901Z,67.73
2019-06-01T00:49:08.189Z,67.69
2019-06-01T00:51:45.044Z,67.90
2019-06-01T00:54:20.671Z,67.99
2019-06-01T00:56:54.703Z,68.19
2019-06-01T00:59:27.325Z,68.06
2019-06-01T01:02:01.882Z,68.05
2019-06-01T01:04:35.684Z,67.74
2019-06-01T01:07:11.937Z,67.93
2019-06-01T01:09:47.215Z,68.01
2019-06-01T01:12:20.749Z,67.74
2019-06-01T01:14:53.354Z,67.64
2019-06-01T01:17:28.862Z,67.54
2019-06-01T01:20:00.882Z,67.48
2019-06-01T01:22:36.633Z,67.52
2019-06-01T01:25:10.178Z,67.58
2019-06-01T01:27:52.971Z,67.61
2019-06-01T01:30:35.351Z,67.79
2019-06-01T01:33:06.912Z,67.71
2019-06-01T01:35:40.009Z,67.67
2019-06-01T01:38:25.294Z,67.60
2019-06-01T01:41:17.459Z,67.52
2019-06-01T01:43:52.757Z,67.55
2019-06-01T01:46:27.350Z,67.42
2019-06-01T01:49:02.713Z,67.52
2019-06-01T01:51:36.619Z,67.58
2019-06-01T01:54:10.022Z,67.45
2019-06-01T01:56:48.016Z,67.52
2019-06-01T01:59:20.143Z,67.71
2019-06-01T02:01:53.157Z,67.70
2019-06-01T02:04:25.202Z,67.79
2019-06-01T02:06:56.624Z,67.96
2019-06-01T02:09:29.867Z,67.95
2019-06-01T02:12:02.478Z,68.07
2019-06-01T02:14:37.856Z,68.31
2019-06-01T02:17:12.436Z,68.65
2019-06-01T02:19:45.330Z,68.88
2019-06-01T02:22:19.421Z,68.76
2019-06-01T02:24:54.132Z,69.00
2019-06-01T02:27:27.340Z,69.13
2019-06-01T02:30:02.610Z,68.95
2019-06-01T02:32:37.118Z,69.09
2019-06-01T02:35:09.497Z,69.14
2019-06-01T02:37:50.795Z,69.21
2019-06-01T02:40:48.135Z,69.33
2019-06-01T02:43:20.481Z,69.26
2019-06-01T02:45:56.186Z,69.30
2019-06-01T02:48:29.381Z,69.08
2019-06-01T02:51:01.872Z,68.82
2019-06-01T02:53:34.318Z,68.69
2019-06-01T02:56:08.757Z,68.38
2019-06-01T02:58:44.290Z,68.70
2019-06-01T03:01:35.041Z,68.51
2019-06-01T03:04:09.950Z,68.64
2019-06-01T03:06:45.209Z,68.86
2019-06-01T03:09:22.375Z,69.15
2019-06-01T03:11:58.899Z,69.07
2019-06-01T03:14:34.116Z,68.92
2019-06-01T03:17:09.848Z,68.69
2019-06-01T03:19:42.829Z,68.52
2019-06-01T03:22:16.635Z,68.53
2019-06-01T03:24:52.198Z,68.39
2019-06-01T03:27:25.947Z,68.42
2019-06-01T03:30:00.351Z,68.46
2019-06-01T03:32:36.879Z,68.32
2019-06-01T03:35:07.391Z,68.17
2019-06-01T03:37:40.644Z,68.33
2019-06-01T03:40:32.911Z,67.99
2019-06-01T03:43:04.861Z,67.78
2019-06-01T03:45:41.081Z,67.57
2019-06-01T03:48:14.740Z,67.44
2019-06-01T03:50:50.312Z,67.42
2019-06-01T03:53:23.785Z,67.56
2019-06-01T03:55:55.713Z,67.49
2019-06-01T03:58:30.710Z,67.37
2019-06-01T04:01:09.169Z,67.14
2019-06-01T04:03:41.537Z,67.26
2019-06-01T04:06:13.670Z,66.99
2019-06-01T04:08:45.676Z,66.98
2019-06-01T04:11:21.944Z,66.74
2019-06-01T04:13:57.435Z,66.98
2019-06-01T04:16:31.409Z,66.87
2019-06-01T04:19:03.933Z,66.98
2019-06-01T04:21:38.212Z,67.24
2019-06-01T04:24:12.664Z,67.13
2019-06-01T04:26:46.894Z,67.05
2019-06-01T04:29:21.641Z,66.83
2019-06-01T04:31:56.232Z,66.76
2019-06-01T04:34:29.616Z,66.96
2019-06-01T04:37:07.007Z,66.79
2019-06-01T04:39:38.922Z,66.71
2019-06-01T04:42:13.830Z,66.71
2019-06-01T04:44:48.681Z,66.38
2019-06-01T04:47:23.832Z,65.92
2019-06-01T04:49:57.473Z,65.85
2019-06-01T04:52:28.925Z,65.57
2019-06-01T04:55:07.276Z,65.41
2019-06-01T04:57:51.792Z,65.26
2019-06-01T05:00:52.659Z,64.86
2019-06-01T05:03:25.967Z,64.24
2019-06-01T05:05:58.547Z,64.43
2019-06-01T05:08:31.333Z,64.08
2019-06-01T05:11:13.709Z,64.10
2019-06-01T05:13:45.693Z,64.34
2019-06-01T05:16:22.269Z,64.50
2019-06-01T05:18:53.978Z,64.72
2019-06-01T05:21:29.815Z,64.56
2019-06-01T05:24:01.129Z,64.12
2019-06-01T05:26:38.593Z,64.15
2019-06-01T05:29:11.655Z,64.50
2019-06-01T05:31:43.092Z,64.75
2019-06-01T05:34:18.352Z,64.92
2019-06-01T05:36:51.976Z,65.21
2019-06-01T05:39:25.472Z,65.36
2019-06-01T05:41:57.231Z,65.32
2019-06-01T05:44:30.413Z,65.41
2019-06-01T05:47:02.174Z,64.99
2019-06-01T05:49:37.896Z,65.43
2019-06-01T05:52:10.406Z,65.69
2019-06-01T05:54:43.406Z,65.59
2019-06-01T05:57:19.451Z,65.74
2019-06-01T05:59:53.508Z,65.51
2019-06-01T06:02:28.294Z,65.32
2019-06-01T06:05:02.000Z,64.58
2019-06-01T06:07:36.497Z,64.44
2019-06-01T06:10:11.936Z,64.87
2019-06-01T06:12:55.953Z,64.53
2019-06-01T06:15:29.573Z,63.97
2019-06-01T06:18:04.258Z,64.43
2019-06-01T06:20:37.613Z,63.85
2019-06-01T06:23:16.342Z,63.82
2019-06-01T06:26:04.065Z,62.87
2019-06-01T06:28:37.819Z,63.65
2019-06-01T06:31:13.303Z,62.91
2019-06-01T06:33:56.715Z,63.01
2019-06-01T06:36:23.907Z,62.62
2019-06-01T06:38:59.139Z,63.03
2019-06-01T06:41:30.496Z,62.58
2019-06-01T06:44:04.510Z,61.90
2019-06-01T06:46:37.601Z,62.00
2019-06-01T06:49:11.427Z,61.66
2019-06-01T06:51:44.723Z,61.62
2019-06-01T06:54:21.759Z,61.94
2019-06-01T06:56:55.454Z,61.53
2019-06-01T06:59:28.869Z,61.54
2019-06-01T07:02:06.922Z,61.69
2019-06-01T07:04:39.694Z,61.57
2019-06-01T07:07:11.703Z,61.25
2019-06-01T07:09:45.782Z,61.01
2019-06-01T07:12:19.191Z,61.67
2019-06-01T07:14:54.566Z,61.75
2019-06-01T07:17:28.900Z,61.63
2019-06-01T07:20:01.718Z,60.90
2019-06-01T07:22:35.536Z,60.44
2019-06-01T07:25:12.696Z,60.37
2019-06-01T07:28:00.731Z,60.35
2019-06-01T07:30:58.636Z,59.79
2019-06-01T07:33:32.758Z,60.35
2019-06-01T07:36:07.753Z,60.46
2019-06-01T07:38:43.301Z,59.86
2019-06-01T07:41:16.696Z,60.11
2019-06-01T07:43:48.852Z,59.98
2019-06-01T07:46:22.861Z,58.70
2019-06-01T07:48:56.438Z,58.60
2019-06-01T07:51:29.624Z,58.68
2019-06-01T07:54:02.392Z,57.13
2019-06-01T07:56:33.840Z,57.87
2019-06-01T07:59:08.166Z,58.13
2019-06-01T08:01:42.352Z,56.65
2019-06-01T08:04:14.180Z,56.71
2019-06-01T08:06:48.521Z,56.73
2019-06-01T08:09:22.061Z,58.24
2019-06-01T08:11:56.581Z,58.71
2019-06-01T08:14:28.844Z,56.39
2019-06-01T08:17:02.005Z,57.95
2019-06-01T08:19:35.712Z,57.97
2019-06-01T08:22:08.879Z,58.56
2019-06-01T08:24:40.388Z,58.17
2019-06-01T08:27:12.981Z,58.11
2019-06-01T08:29:46.939Z,57.61
2019-06-01T08:32:19.902Z,56.43
2019-06-01T08:35:08.061Z,55.55
2019-06-01T08:37:31.678Z,56.26
2019-06-01T08:40:05.376Z,55.80
2019-06-01T08:42:39.020Z,55.11
2019-06-01T08:45:37.494Z,54.02
2019-06-01T08:48:14.261Z,53.57
2019-06-01T08:50:56.357Z,53.43
2019-06-01T08:53:30.073Z,52.71
2019-06-01T08:56:03.967Z,54.57
2019-06-01T08:58:37.922Z,54.01
2019-06-01T09:01:11.141Z,53.66
2019-06-01T09:03:46.785Z,55.30
2019-06-01T09:06:21.148Z,55.39
2019-06-01T09:08:56.799Z,53.90
2019-06-01T09:11:31.146Z,54.26
2019-06-01T09:14:06.900Z,53.64
2019-06-01T09:16:42.060Z,53.49
2019-06-01T09:19:17.174Z,51.36
2019-06-01T09:21:49.387Z,52.96
2019-06-01T09:24:22.111Z,50.81
2019-06-01T09:26:56.743Z,47.92
2019-06-01T09:29:30.136Z,47.42
2019-06-01T09:32:10.920Z,48.55
2019-06-01T09:34:43.685Z,49.23
2019-06-01T09:37:38.415Z,50.20
2019-06-01T09:40:11.371Z,49.81
2019-06-01T09:42:44.527Z,49.52
2019-06-01T09:45:52.821Z,49.46
2019-06-01T09:48:27.027Z,50.66
2019-06-01T09:51:12.040Z,49.99
2019-06-01T09:53:43.372Z,48.56
2019-06-01T09:56:16.414Z,49.74
2019-06-01T09:58:52.042Z,49.35
2019-06-01T10:01:28.096Z,49.91
2019-06-01T10:04:01.981Z,48.67
2019-06-01T10:09:09.299Z,48.48
2019-06-01T10:11:45.024Z,48.62
2019-06-01T10:14:17.676Z,49.54
2019-06-01T10:16:50.635Z,49.35
2019-06-01T10:19:24.340Z,48.94
2019-06-01T10:22:01.195Z,50.54
2019-06-01T10:24:37.227Z,49.88
2019-06-01T10:27:10.426Z,48.83
2019-06-01T10:29:43.064Z,49.22
2019-06-01T10:32:18.980Z,48.58
2019-06-01T10:34:52.560Z,49.08
2019-06-01T10:37:27.272Z,48.58
2019-06-01T10:39:59.469Z,49.77
2019-06-01T10:42:32.749Z,49.13
2019-06-01T10:45:04.739Z,49.38
2019-06-01T10:47:38.604Z,48.75
2019-06-01T10:50:12.722Z,48.05
2019-06-01T10:52:56.634Z,48.91
2019-06-01T10:55:40.905Z,49.57
2019-06-01T10:58:13.719Z,49.13
2019-06-01T11:00:55.128Z,48.31
2019-06-01T11:03:31.074Z,47.82
2019-06-01T11:06:03.743Z,48.93
2019-06-01T11:08:37.056Z,48.72
2019-06-01T11:11:10.685Z,49.13
2019-06-01T11:13:43.293Z,48.22
2019-06-01T11:16:19.502Z,48.04
2019-06-01T11:18:51.720Z,48.34
2019-06-01T11:21:24.719Z,48.62
2019-06-01T11:23:58.833Z,46.61
2019-06-01T11:26:33.368Z,46.98
2019-06-01T11:29:05.932Z,47.03
2019-06-01T11:31:40.095Z,46.53
2019-06-01T11:34:14.610Z,46.81
2019-06-01T11:37:04.410Z,46.55
2019-06-01T11:39:24.456Z,47.04
2019-06-01T11:41:56.965Z,45.97
2019-06-01T11:44:28.767Z,46.11
2019-06-01T11:47:01.980Z,46.97
2019-06-01T11:49:34.685Z,47.10
2019-06-01T11:52:09.906Z,46.19
2019-06-01T11:54:47.269Z,45.57
2019-06-01T11:57:21.609Z,45.08
2019-06-01T11:59:53.991Z,45.36
2019-06-01T12:02:28.536Z,44.73
2019-06-01T12:05:00.440Z,45.15
2019-06-01T12:07:33.018Z,46.18
2019-06-01T12:10:08.102Z,46.45
2019-06-01T12:12:40.294Z,46.42
2019-06-01T12:15:13.545Z,45.67
2019-06-01T12:17:58.292Z,45.38
2019-06-01T12:20:37.091Z,46.31
2019-06-01T12:23:09.968Z,45.14
2019-06-01T12:25:44.239Z,42.89
2019-06-01T12:28:18.830Z,43.82
2019-06-01T12:30:52.167Z,44.05
2019-06-01T12:33:25.250Z,44.34
2019-06-01T12:35:57.026Z,45.10
2019-06-01T12:38:33.972Z,45.28
2019-06-01T12:41:10.562Z,44.58
2019-06-01T12:43:45.641Z,44.60
2019-06-01T12:46:17.032Z,46.48
2019-06-01T12:48:50.277Z,47.39
2019-06-01T12:51:23.269Z,48.57
2019-06-01T12:53:59.290Z,48.16
2019-06-01T12:56:33.204Z,48.04
2019-06-01T12:59:06.776Z,47.71
2019-06-01T13:01:38.286Z,48.09
2019-06-01T13:04:12.399Z,47.39
2019-06-01T13:06:51.082Z,46.16
2019-06-01T13:09:22.197Z,46.81
2019-06-01T13:11:54.431Z,47.86
2019-06-01T13:14:30.104Z,44.60
2019-06-01T13:17:07.595Z,44.53
2019-06-01T13:19:38.925Z,44.79
2019-06-01T13:22:17.597Z,44.94
2019-06-01T13:24:52.733Z,44.66
2019-06-01T13:27:28.699Z,44.28
2019-06-01T13:30:02.464Z,45.29
2019-06-01T13:32:38.213Z,46.03
2019-06-01T13:35:10.615Z,46.10
2019-06-01T13:37:44.541Z,46.39
2019-06-01T13:40:18.556Z,48.57
2019-06-01T13:43:05.814Z,48.69
2019-06-01T13:45:41.290Z,48.90
2019-06-01T13:48:14.376Z,47.27
2019-06-01T13:50:47.833Z,47.45
2019-06-01T13:53:20.950Z,46.31
2019-06-01T13:55:57.440Z,45.77
2019-06-01T13:58:29.619Z,45.79
2019-06-01T14:01:01.550Z,45.51
2019-06-01T14:03:34.529Z,46.23
2019-06-01T14:06:11.652Z,46.05
2019-06-01T14:08:46.839Z,46.60
2019-06-01T14:11:20.563Z,46.94
2019-06-01T14:13:54.218Z,46.84
2019-06-01T14:16:31.140Z,48.88
2019-06-01T14:19:06.938Z,49.61
2019-06-01T14:21:40.624Z,50.55
2019-06-01T14:24:16.436Z,49.88
2019-06-01T14:26:52.313Z,50.30
2019-06-01T14:29:29.536Z,50.03
2019-06-01T14:32:05.237Z,47.18
2019-06-01T14:34:37.885Z,49.27
2019-06-01T14:37:18.072Z,49.95
2019-06-01T14:39:54.957Z,49.23
2019-06-01T14:42:29.939Z,47.78
2019-06-01T14:45:04.928Z,47.38
2019-06-01T14:47:40.058Z,47.38
2019-06-01T14:50:27.606Z,48.18
2019-06-01T14:53:00.864Z,46.75
2019-06-01T14:55:43.376Z,46.91
2019-06-01T14:58:15.964Z,45.66
2019-06-01T15:00:52.642Z,43.92
2019-06-01T15:03:25.670Z,43.53
2019-06-01T15:05:58.628Z,43.27
2019-06-01T15:08:36.461Z,44.28
2019-06-01T15:11:09.639Z,43.78
2019-06-01T15:13:43.006Z,43.23
2019-06-01T15:16:15.993Z,42.25
2019-06-01T15:18:51.540Z,40.10
2019-06-01T15:21:24.390Z,39.77
2019-06-01T15:23:56.717Z,41.75
2019-06-01T15:26:32.560Z,43.25
2019-06-01T15:29:06.222Z,44.73
2019-06-01T15:31:39.814Z,43.80
2019-06-01T15:34:12.961Z,45.68
2019-06-01T15:36:53.885Z,45.66
2019-06-01T15:39:40.342Z,46.21
2019-06-01T15:42:14.001Z,46.67
2019-06-01T15:44:47.010Z,47.33
2019-06-01T15:47:19.994Z,48.51
2019-06-01T15:49:53.595Z,51.03
2019-06-01T15:52:26.293Z,52.54
2019-06-01T15:55:00.434Z,52.65
2019-06-01T15:57:35.214Z,51.71
2019-06-01T16:00:07.736Z,51.99
2019-06-01T16:02:40.941Z,51.86
2019-06-01T16:05:12.753Z,51.48
2019-06-01T16:07:55.167Z,51.04
2019-06-01T16:10:28.992Z,50.31
2019-06-01T16:13:04.598Z,50.16
2019-06-01T16:15:46.030Z,50.05
2019-06-01T16:18:20.023Z,49.76
2019-06-01T16:20:58.034Z,49.20
2019-06-01T16:23:30.174Z,49.20
2019-06-01T16:26:15.745Z,49.44
2019-06-01T16:28:40.173Z,49.45
2019-06-01T16:31:16.094Z,49.15
2019-06-01T16:33:50.383Z,48.91
2019-06-01T16:36:25.007Z,49.06
2019-06-01T16:39:03.620Z,49.56
2019-06-01T16:41:34.368Z,49.77
2019-06-01T16:44:05.909Z,50.50
2019-06-01T16:46:40.142Z,50.54
2019-06-01T16:49:12.555Z,50.69
2019-06-01T16:51:59.296Z,50.59
2019-06-01T16:54:35.123Z,50.78
2019-06-01T16:57:07.673Z,50.73
2019-06-01T16:59:39.348Z,50.94
2019-06-01T17:02:15.049Z,51.90
2019-06-01T17:04:47.428Z,52.52
2019-06-01T17:07:21.288Z,53.38
2019-06-01T17:09:52.555Z,54.17
2019-06-01T17:12:25.423Z,53.61
2019-06-01T17:14:58.782Z,54.05
2019-06-01T17:17:34.464Z,54.56
2019-06-01T17:20:07.262Z,54.77
2019-06-01T17:22:39.927Z,54.97
2019-06-01T17:25:12.131Z,55.53
2019-06-01T17:28:01.013Z,55.50
2019-06-01T17:30:37.753Z,56.40
2019-06-01T17:33:11.184Z,57.30
2019-06-01T17:36:02.843Z,57.82
2019-06-01T17:38:38.579Z,58.70
2019-06-01T17:41:14.113Z,59.88
2019-06-01T17:43:50.904Z,60.34
2019-06-01T17:46:30.072Z,60.98
2019-06-01T17:49:02.720Z,60.79
2019-06-01T17:51:36.935Z,61.67
2019-06-01T17:54:10.509Z,61.91
2019-06-01T17:56:46.655Z,62.06
2019-06-01T17:59:22.181Z,61.70
2019-06-01T18:01:53.689Z,62.07
2019-06-01T18:04:28.268Z,61.88
2019-06-01T18:07:01.790Z,61.93
2019-06-01T18:09:33.935Z,62.05
2019-06-01T18:12:10.209Z,61.74
2019-06-01T18:14:43.904Z,61.56
2019-06-01T18:17:17.623Z,62.54
2019-06-01T18:19:54.006Z,63.21
2019-06-01T18:22:28.275Z,63.58
2019-06-01T18:25:00.711Z,64.15
2019-06-01T18:27:32.736Z,64.16
2019-06-01T18:30:06.864Z,63.44
2019-06-01T18:32:39.964Z,63.23
2019-06-01T18:35:11.784Z,63.20
2019-06-01T18:38:00.243Z,63.14
2019-06-01T18:40:35.657Z,63.21
2019-06-01T18:43:14.303Z,63.57
2019-06-01T18:45:53.447Z,63.06
2019-06-01T18:48:25.808Z,62.78
2019-06-01T18:50:57.869Z,63.21
2019-06-01T18:53:31.743Z,63.16
2019-06-01T18:56:08.158Z,63.09
2019-06-01T18:58:44.282Z,63.05
2019-06-01T19:01:21.070Z,63.11
2019-06-01T19:03:52.892Z,62.83
2019-06-01T19:06:28.652Z,63.22
2019-06-01T19:08:59.994Z,63.50
2019-06-01T19:11:36.224Z,63.64
2019-06-01T19:14:11.868Z,63.50
2019-06-01T19:16:49.551Z,63.52
2019-06-01T19:19:23.933Z,63.77
2019-06-01T19:21:58.108Z,64.28
2019-06-01T19:24:32.184Z,64.71
2019-06-01T19:27:06.580Z,64.70
2019-06-01T19:29:40.601Z,64.59
2019-06-01T19:32:19.058Z,64.43
2019-06-01T19:34:49.986Z,64.75
2019-06-01T19:37:27.904Z,64.22
2019-06-01T19:40:00.564Z,64.12
2019-06-01T19:42:34.974Z,63.89
2019-06-01T19:45:18.452Z,64.34
2019-06-01T19:47:46.432Z,64.70
2019-06-01T19:50:36.087Z,64.81
2019-06-01T19:53:10.460Z,64.83
2019-06-01T19:55:48.841Z,64.84
2019-06-01T19:58:20.264Z,64.87
2019-06-01T20:01:10.146Z,64.78
2019-06-01T20:03:47.802Z,64.88
2019-06-01T20:06:20.316Z,64.83
2019-06-01T20:08:53.288Z,64.58
2019-06-01T20:11:30.150Z,64.03
2019-06-01T20:14:04.623Z,63.78
2019-06-01T20:16:37.647Z,63.08
2019-06-01T20:19:11.450Z,63.27
2019-06-01T20:21:47.436Z,64.20
2019-06-01T20:24:24.149Z,65.49
2019-06-01T20:26:58.715Z,65.91
2019-06-01T20:29:34.555Z,66.28
2019-06-01T20:32:09.783Z,66.26
2019-06-01T20:34:51.901Z,66.11
2019-06-01T20:37:26.376Z,66.20
2019-06-01T20:39:59.517Z,66.21
2019-06-01T20:42:33.127Z,66.27
2019-06-01T20:45:09.149Z,66.31
2019-06-01T20:47:42.403Z,66.10
2019-06-01T20:50:38.720Z,66.10
2019-06-01T20:53:16.965Z,65.99
2019-06-01T20:56:03.352Z,66.01
2019-06-01T20:58:35.611Z,66.03
2019-06-01T21:01:11.841Z,66.07
2019-06-01T21:03:45.972Z,66.15
2019-06-01T21:06:18.871Z,66.00
2019-06-01T21:08:54.225Z,66.32
2019-06-01T21:11:25.507Z,66.32
2019-06-01T21:14:01.326Z,66.43
2019-06-01T21:16:35.637Z,66.55
2019-06-01T21:19:08.652Z,66.68
2019-06-01T21:21:39.994Z,66.97
2019-06-01T21:24:12.138Z,66.97
2019-06-01T21:26:48.538Z,67.00
2019-06-01T21:29:23.396Z,67.00
2019-06-01T21:31:58.349Z,67.03
2019-06-01T21:34:30.830Z,66.72
2019-06-01T21:37:04.355Z,66.74
2019-06-01T21:39:37.741Z,66.65
2019-06-01T21:42:11.104Z,66.84
2019-06-01T21:44:44.721Z,66.85
2019-06-01T21:47:19.774Z,66.90
2019-06-01T21:49:52.738Z,67.13
2019-06-01T21:52:26.357Z,67.14
2019-06-01T21:54:59.685Z,66.91
2019-06-01T21:57:31.750Z,66.68
2019-06-01T22:00:07.655Z,66.21
2019-06-01T22:02:40.695Z,65.89
2019-06-01T22:05:12.922Z,65.73
2019-06-01T22:07:57.396Z,65.40
2019-06-01T22:10:39.347Z,65.43
2019-06-01T22:13:18.520Z,65.46
2019-06-01T22:15:52.070Z,65.17
2019-06-01T22:18:25.905Z,64.26
2019-06-01T22:20:59.490Z,63.38
2019-06-01T22:23:31.723Z,64.64
2019-06-01T22:26:05.390Z,64.88
2019-06-01T22:28:38.893Z,65.00
2019-06-01T22:31:14.638Z,64.98
2019-06-01T22:33:49.162Z,64.67
2019-06-01T22:36:25.104Z,64.34
2019-06-01T22:38:56.957Z,63.39
2019-06-01T22:41:33.526Z,63.45
2019-06-01T22:44:09.728Z,62.60
2019-06-01T22:46:42.128Z,62.11
2019-06-01T22:49:17.735Z,62.51
2019-06-01T22:51:51.970Z,63.75
2019-06-01T22:54:25.136Z,64.00
2019-06-01T22:56:58.061Z,63.11
2019-06-01T22:59:30.150Z,62.63
2019-06-01T23:02:02.240Z,64.61
2019-06-01T23:04:35.207Z,64.54
2019-06-01T23:07:08.841Z,65.11
2019-06-01T23:09:42.098Z,65.20
2019-06-01T23:12:16.058Z,64.99
2019-06-01T23:14:48.051Z,64.67
2019-06-01T23:17:21.524Z,64.23
2019-06-01T23:19:54.151Z,64.52
2019-06-01T23:22:28.263Z,63.94
2019-06-01T23:25:00.405Z,64.41
2019-06-01T23:27:36.077Z,64.80
2019-06-01T23:30:10.070Z,64.73
2019-06-01T23:32:42.399Z,65.42
2019-06-01T23:35:35.211Z,65.77
2019-06-01T23:38:09.272Z,65.38
2019-06-01T23:40:48.072Z,65.63
2019-06-01T23:43:24.721Z,65.54
2019-06-01T23:46:18.610Z,65.98
2019-06-01T23:48:50.332Z,66.11
2019-06-01T23:51:23.497Z,65.56
2019-06-01T23:53:58.587Z,65.81
2019-06-01T23:56:34.724Z,65.73
2019-06-01T23:59:07.249Z,65.44
